sensor_id;sensor_type;location;lat;lon;timestamp;P1;durP1;ratioP1;P2;durP2;ratioP2
23472;SDS011;11909;52.516;13.564;2023-10-13T00:00:34;8.18;;;3.92;;
23472;SDS011;11909;52.516;13.564;2023-10-13T00:03:03;5.47;;;3.47;;
23472;SDS011;11909;52.516;13.564;2023-10-13T00:05:32;8.95;;;4.28;;
23472;SDS011;11909;52.516;13.564;2023-10-13T00:08:01;7.40;;;3.63;;
23472;SDS011;11909;52.516;13.564;2023-10-13T00:10:30;8.90;;;3.60;;
23472;SDS011;11909;52.516;13.564;2023-10-13T00:13:00;9.80;;;3.55;;
23472;SDS011;11909;52.516;13.564;2023-10-13T00:15:40;5.93;;;3.50;;
23472;SDS011;11909;52.516;13.564;2023-10-13T00:18:13;5.80;;;3.70;;
23472;SDS011;11909;52.516;13.564;2023-10-13T00:20:41;10.27;;;3.42;;
23472;SDS011;11909;52.516;13.564;2023-10-13T00:23:15;4.15;;;2.35;;
23472;SDS011;11909;52.516;13.564;2023-10-13T00:25:48;6.63;;;3.15;;
23472;SDS011;11909;52.516;13.564;2023-10-13T00:28:25;7.38;;;3.15;;
23472;SDS011;11909;52.516;13.564;2023-10-13T00:31:03;7.43;;;3.13;;
23472;SDS011;11909;52.516;13.564;2023-10-13T00:33:37;7.75;;;3.17;;
23472;SDS011;11909;52.516;13.564;2023-10-13T00:36:07;7.40;;;3.10;;
23472;SDS011;11909;52.516;13.564;2023-10-13T00:38:43;7.88;;;3.33;;
23472;SDS011;11909;52.516;13.564;2023-10-13T00:41:15;6.65;;;2.90;;
23472;SDS011;11909;52.516;13.564;2023-10-13T00:43:44;5.35;;;3.00;;
23472;SDS011;11909;52.516;13.564;2023-10-13T00:46:13;6.53;;;3.03;;
23472;SDS011;11909;52.516;13.564;2023-10-13T00:48:45;6.63;;;3.28;;
23472;SDS011;11909;52.516;13.564;2023-10-13T00:51:19;6.20;;;3.10;;
23472;SDS011;11909;52.516;13.564;2023-10-13T00:53:59;7.13;;;3.13;;
23472;SDS011;11909;52.516;13.564;2023-10-13T00:56:29;7.07;;;3.35;;
23472;SDS011;11909;52.516;13.564;2023-10-13T00:58:58;5.00;;;2.67;;
23472;SDS011;11909;52.516;13.564;2023-10-13T01:01:30;7.43;;;3.53;;
23472;SDS011;11909;52.516;13.564;2023-10-13T01:03:59;8.00;;;3.75;;
23472;SDS011;11909;52.516;13.564;2023-10-13T01:06:29;6.97;;;3.60;;
23472;SDS011;11909;52.516;13.564;2023-10-13T01:08:58;7.22;;;3.22;;
23472;SDS011;11909;52.516;13.564;2023-10-13T01:11:38;15.05;;;3.67;;
23472;SDS011;11909;52.516;13.564;2023-10-13T01:14:06;8.82;;;3.63;;
23472;SDS011;11909;52.516;13.564;2023-10-13T01:16:34;7.88;;;3.55;;
23472;SDS011;11909;52.516;13.564;2023-10-13T01:19:06;7.68;;;3.45;;
23472;SDS011;11909;52.516;13.564;2023-10-13T01:21:33;9.40;;;3.60;;
23472;SDS011;11909;52.516;13.564;2023-10-13T01:24:03;7.53;;;3.55;;
23472;SDS011;11909;52.516;13.564;2023-10-13T01:26:34;8.45;;;3.78;;
23472;SDS011;11909;52.516;13.564;2023-10-13T01:29:05;12.90;;;3.53;;
23472;SDS011;11909;52.516;13.564;2023-10-13T01:31:39;10.05;;;3.38;;
23472;SDS011;11909;52.516;13.564;2023-10-13T01:34:12;6.70;;;3.10;;
23472;SDS011;11909;52.516;13.564;2023-10-13T01:36:41;7.57;;;3.10;;
23472;SDS011;11909;52.516;13.564;2023-10-13T01:39:11;7.30;;;3.10;;
23472;SDS011;11909;52.516;13.564;2023-10-13T01:41:43;7.32;;;3.03;;
23472;SDS011;11909;52.516;13.564;2023-10-13T01:44:11;7.93;;;3.33;;
23472;SDS011;11909;52.516;13.564;2023-10-13T01:46:38;6.53;;;2.83;;
23472;SDS011;11909;52.516;13.564;2023-10-13T01:49:06;7.68;;;3.22;;
23472;SDS011;11909;52.516;13.564;2023-10-13T01:51:34;9.80;;;3.60;;
23472;SDS011;11909;52.516;13.564;2023-10-13T01:54:02;6.60;;;3.15;;
23472;SDS011;11909;52.516;13.564;2023-10-13T01:56:31;7.20;;;3.40;;
23472;SDS011;11909;52.516;13.564;2023-10-13T01:58:59;8.75;;;3.95;;
23472;SDS011;11909;52.516;13.564;2023-10-13T02:01:32;9.50;;;3.47;;
23472;SDS011;11909;52.516;13.564;2023-10-13T02:04:02;9.43;;;4.03;;
23472;SDS011;11909;52.516;13.564;2023-10-13T02:06:30;11.55;;;3.97;;
23472;SDS011;11909;52.516;13.564;2023-10-13T02:09:00;13.75;;;4.43;;
23472;SDS011;11909;52.516;13.564;2023-10-13T02:11:38;9.52;;;3.83;;
23472;SDS011;11909;52.516;13.564;2023-10-13T02:16:37;15.70;;;4.10;;
23472;SDS011;11909;52.516;13.564;2023-10-13T02:19:06;13.55;;;4.60;;
23472;SDS011;11909;52.516;13.564;2023-10-13T02:21:35;13.52;;;4.40;;
23472;SDS011;11909;52.516;13.564;2023-10-13T02:24:11;7.40;;;3.92;;
23472;SDS011;11909;52.516;13.564;2023-10-13T02:26:41;12.85;;;4.30;;
23472;SDS011;11909;52.516;13.564;2023-10-13T02:29:09;12.27;;;4.90;;
23472;SDS011;11909;52.516;13.564;2023-10-13T02:31:39;10.65;;;4.32;;
23472;SDS011;11909;52.516;13.564;2023-10-13T02:34:08;12.77;;;4.40;;
23472;SDS011;11909;52.516;13.564;2023-10-13T02:36:35;10.05;;;4.30;;
23472;SDS011;11909;52.516;13.564;2023-10-13T02:39:04;11.93;;;4.72;;
23472;SDS011;11909;52.516;13.564;2023-10-13T02:44:05;10.85;;;4.82;;
23472;SDS011;11909;52.516;13.564;2023-10-13T02:46:34;11.27;;;5.03;;
23472;SDS011;11909;52.516;13.564;2023-10-13T02:49:02;10.35;;;5.30;;
23472;SDS011;11909;52.516;13.564;2023-10-13T02:51:37;14.68;;;5.95;;
23472;SDS011;11909;52.516;13.564;2023-10-13T02:54:10;9.60;;;5.90;;
23472;SDS011;11909;52.516;13.564;2023-10-13T02:56:38;13.55;;;5.78;;
23472;SDS011;11909;52.516;13.564;2023-10-13T02:59:16;12.82;;;6.80;;
23472;SDS011;11909;52.516;13.564;2023-10-13T03:01:46;13.02;;;7.28;;
23472;SDS011;11909;52.516;13.564;2023-10-13T03:04:18;11.60;;;6.20;;
23472;SDS011;11909;52.516;13.564;2023-10-13T03:06:52;11.52;;;6.05;;
23472;SDS011;11909;52.516;13.564;2023-10-13T03:09:19;16.85;;;7.40;;
23472;SDS011;11909;52.516;13.564;2023-10-13T03:11:49;13.73;;;6.90;;
23472;SDS011;11909;52.516;13.564;2023-10-13T03:14:19;13.30;;;6.70;;
23472;SDS011;11909;52.516;13.564;2023-10-13T03:16:52;12.57;;;6.15;;
23472;SDS011;11909;52.516;13.564;2023-10-13T03:19:21;10.43;;;7.63;;
23472;SDS011;11909;52.516;13.564;2023-10-13T03:21:59;16.17;;;7.40;;
23472;SDS011;11909;52.516;13.564;2023-10-13T03:24:36;7.90;;;5.63;;
23472;SDS011;11909;52.516;13.564;2023-10-13T03:27:08;12.45;;;7.20;;
23472;SDS011;11909;52.516;13.564;2023-10-13T03:29:37;12.25;;;6.30;;
23472;SDS011;11909;52.516;13.564;2023-10-13T03:32:09;15.77;;;7.50;;
23472;SDS011;11909;52.516;13.564;2023-10-13T03:34:39;11.57;;;7.70;;
23472;SDS011;11909;52.516;13.564;2023-10-13T03:37:16;10.85;;;7.13;;
23472;SDS011;11909;52.516;13.564;2023-10-13T03:40:04;16.40;;;8.23;;
23472;SDS011;11909;52.516;13.564;2023-10-13T03:42:42;12.43;;;7.32;;
23472;SDS011;11909;52.516;13.564;2023-10-13T03:45:17;12.50;;;7.80;;
23472;SDS011;11909;52.516;13.564;2023-10-13T03:47:48;13.27;;;8.43;;
23472;SDS011;11909;52.516;13.564;2023-10-13T03:50:18;12.30;;;7.47;;
23472;SDS011;11909;52.516;13.564;2023-10-13T03:52:56;12.32;;;8.60;;
23472;SDS011;11909;52.516;13.564;2023-10-13T03:55:24;14.45;;;9.38;;
23472;SDS011;11909;52.516;13.564;2023-10-13T03:57:54;15.23;;;9.10;;
23472;SDS011;11909;52.516;13.564;2023-10-13T04:00:27;16.13;;;8.13;;
23472;SDS011;11909;52.516;13.564;2023-10-13T04:02:55;14.25;;;8.38;;
23472;SDS011;11909;52.516;13.564;2023-10-13T04:08:07;13.02;;;9.05;;
23472;SDS011;11909;52.516;13.564;2023-10-13T04:10:54;15.90;;;8.82;;
23472;SDS011;11909;52.516;13.564;2023-10-13T04:13:40;16.95;;;10.27;;
23472;SDS011;11909;52.516;13.564;2023-10-13T04:16:33;16.77;;;10.43;;
23472;SDS011;11909;52.516;13.564;2023-10-13T04:19:04;16.75;;;10.02;;
23472;SDS011;11909;52.516;13.564;2023-10-13T04:21:37;13.55;;;8.98;;
23472;SDS011;11909;52.516;13.564;2023-10-13T04:24:21;16.15;;;10.10;;
23472;SDS011;11909;52.516;13.564;2023-10-13T04:26:51;16.98;;;9.82;;
23472;SDS011;11909;52.516;13.564;2023-10-13T04:29:37;16.63;;;11.48;;
23472;SDS011;11909;52.516;13.564;2023-10-13T04:32:19;16.73;;;11.15;;
23472;SDS011;11909;52.516;13.564;2023-10-13T04:34:55;16.15;;;10.95;;
23472;SDS011;11909;52.516;13.564;2023-10-13T04:37:30;15.98;;;10.52;;
23472;SDS011;11909;52.516;13.564;2023-10-13T04:40:06;18.17;;;11.77;;
23472;SDS011;11909;52.516;13.564;2023-10-13T04:42:36;18.42;;;11.82;;
23472;SDS011;11909;52.516;13.564;2023-10-13T04:45:17;20.02;;;12.82;;
23472;SDS011;11909;52.516;13.564;2023-10-13T04:48:04;20.02;;;12.50;;
23472;SDS011;11909;52.516;13.564;2023-10-13T04:50:58;17.90;;;11.50;;
23472;SDS011;11909;52.516;13.564;2023-10-13T04:53:41;16.02;;;12.32;;
23472;SDS011;11909;52.516;13.564;2023-10-13T04:56:23;16.38;;;10.98;;
23472;SDS011;11909;52.516;13.564;2023-10-13T04:59:20;19.05;;;12.70;;
23472;SDS011;11909;52.516;13.564;2023-10-13T05:02:01;19.10;;;11.90;;
23472;SDS011;11909;52.516;13.564;2023-10-13T05:04:49;16.45;;;11.27;;
23472;SDS011;11909;52.516;13.564;2023-10-13T05:07:35;20.88;;;11.07;;
23472;SDS011;11909;52.516;13.564;2023-10-13T05:10:20;18.70;;;11.48;;
23472;SDS011;11909;52.516;13.564;2023-10-13T05:13:06;19.42;;;14.07;;
23472;SDS011;11909;52.516;13.564;2023-10-13T05:15:52;23.27;;;13.88;;
23472;SDS011;11909;52.516;13.564;2023-10-13T05:18:37;18.42;;;11.82;;
23472;SDS011;11909;52.516;13.564;2023-10-13T05:21:24;17.00;;;12.55;;
23472;SDS011;11909;52.516;13.564;2023-10-13T05:24:10;17.33;;;12.80;;
23472;SDS011;11909;52.516;13.564;2023-10-13T05:26:55;18.42;;;13.20;;
23472;SDS011;11909;52.516;13.564;2023-10-13T05:29:41;14.07;;;10.80;;
23472;SDS011;11909;52.516;13.564;2023-10-13T05:32:28;16.73;;;12.98;;
23472;SDS011;11909;52.516;13.564;2023-10-13T05:35:13;18.95;;;12.38;;
23472;SDS011;11909;52.516;13.564;2023-10-13T05:38:01;43.63;;;27.92;;
23472;SDS011;11909;52.516;13.564;2023-10-13T05:41:02;21.80;;;14.98;;
23472;SDS011;11909;52.516;13.564;2023-10-13T05:43:50;17.02;;;12.80;;
23472;SDS011;11909;52.516;13.564;2023-10-13T05:46:36;18.52;;;13.25;;
23472;SDS011;11909;52.516;13.564;2023-10-13T05:49:28;17.92;;;13.25;;
23472;SDS011;11909;52.516;13.564;2023-10-13T05:52:16;21.23;;;14.20;;
23472;SDS011;11909;52.516;13.564;2023-10-13T05:55:08;19.67;;;13.85;;
23472;SDS011;11909;52.516;13.564;2023-10-13T05:57:54;17.70;;;13.57;;
23472;SDS011;11909;52.516;13.564;2023-10-13T06:00:40;19.55;;;13.65;;
23472;SDS011;11909;52.516;13.564;2023-10-13T06:03:26;23.70;;;13.65;;
23472;SDS011;11909;52.516;13.564;2023-10-13T06:06:11;19.95;;;13.25;;
23472;SDS011;11909;52.516;13.564;2023-10-13T06:08:57;28.00;;;14.65;;
23472;SDS011;11909;52.516;13.564;2023-10-13T06:11:59;16.00;;;12.63;;
23472;SDS011;11909;52.516;13.564;2023-10-13T06:14:44;21.75;;;13.38;;
23472;SDS011;11909;52.516;13.564;2023-10-13T06:17:30;17.92;;;12.73;;
23472;SDS011;11909;52.516;13.564;2023-10-13T06:20:16;20.13;;;12.32;;
23472;SDS011;11909;52.516;13.564;2023-10-13T06:23:01;24.73;;;14.40;;
23472;SDS011;11909;52.516;13.564;2023-10-13T06:25:50;19.17;;;13.10;;
23472;SDS011;11909;52.516;13.564;2023-10-13T06:28:37;22.45;;;13.82;;
23472;SDS011;11909;52.516;13.564;2023-10-13T06:31:09;17.08;;;11.93;;
23472;SDS011;11909;52.516;13.564;2023-10-13T06:36:17;57.10;;;34.83;;
23472;SDS011;11909;52.516;13.564;2023-10-13T06:38:45;39.63;;;25.92;;
23472;SDS011;11909;52.516;13.564;2023-10-13T06:41:22;19.02;;;13.63;;
23472;SDS011;11909;52.516;13.564;2023-10-13T06:43:59;23.05;;;13.77;;
23472;SDS011;11909;52.516;13.564;2023-10-13T06:46:27;23.48;;;13.48;;
23472;SDS011;11909;52.516;13.564;2023-10-13T06:48:56;19.60;;;13.80;;
23472;SDS011;11909;52.516;13.564;2023-10-13T06:53:58;18.80;;;13.50;;
23472;SDS011;11909;52.516;13.564;2023-10-13T06:56:26;19.77;;;13.98;;
23472;SDS011;11909;52.516;13.564;2023-10-13T06:58:56;21.95;;;13.73;;
23472;SDS011;11909;52.516;13.564;2023-10-13T07:01:30;16.80;;;12.98;;
23472;SDS011;11909;52.516;13.564;2023-10-13T07:04:06;19.73;;;13.68;;
23472;SDS011;11909;52.516;13.564;2023-10-13T07:06:40;21.15;;;12.88;;
23472;SDS011;11909;52.516;13.564;2023-10-13T07:09:17;18.73;;;11.93;;
23472;SDS011;11909;52.516;13.564;2023-10-13T07:11:59;19.23;;;12.05;;
23472;SDS011;11909;52.516;13.564;2023-10-13T07:14:30;18.95;;;12.73;;
23472;SDS011;11909;52.516;13.564;2023-10-13T07:17:01;17.88;;;11.80;;
23472;SDS011;11909;52.516;13.564;2023-10-13T07:19:32;21.85;;;12.32;;
23472;SDS011;11909;52.516;13.564;2023-10-13T07:22:01;15.75;;;11.68;;
23472;SDS011;11909;52.516;13.564;2023-10-13T07:24:46;16.60;;;10.95;;
23472;SDS011;11909;52.516;13.564;2023-10-13T07:27:15;16.35;;;11.65;;
23472;SDS011;11909;52.516;13.564;2023-10-13T07:29:50;17.02;;;10.77;;
23472;SDS011;11909;52.516;13.564;2023-10-13T07:32:33;18.75;;;10.23;;
23472;SDS011;11909;52.516;13.564;2023-10-13T07:35:01;20.17;;;11.18;;
23472;SDS011;11909;52.516;13.564;2023-10-13T07:37:33;15.93;;;11.18;;
23472;SDS011;11909;52.516;13.564;2023-10-13T07:40:03;15.40;;;10.82;;
23472;SDS011;11909;52.516;13.564;2023-10-13T07:42:38;16.08;;;10.15;;
23472;SDS011;11909;52.516;13.564;2023-10-13T07:45:07;54.70;;;35.17;;
23472;SDS011;11909;52.516;13.564;2023-10-13T07:47:39;21.02;;;14.75;;
23472;SDS011;11909;52.516;13.564;2023-10-13T07:50:08;13.25;;;9.82;;
23472;SDS011;11909;52.516;13.564;2023-10-13T07:52:36;12.10;;;9.02;;
23472;SDS011;11909;52.516;13.564;2023-10-13T07:55:07;13.23;;;9.82;;
23472;SDS011;11909;52.516;13.564;2023-10-13T07:57:47;16.55;;;9.15;;
23472;SDS011;11909;52.516;13.564;2023-10-13T08:00:22;14.93;;;9.27;;
23472;SDS011;11909;52.516;13.564;2023-10-13T08:03:06;13.82;;;9.32;;
23472;SDS011;11909;52.516;13.564;2023-10-13T08:05:51;13.30;;;8.35;;
23472;SDS011;11909;52.516;13.564;2023-10-13T08:08:25;13.75;;;9.15;;
23472;SDS011;11909;52.516;13.564;2023-10-13T08:11:01;16.52;;;8.48;;
23472;SDS011;11909;52.516;13.564;2023-10-13T08:13:35;11.05;;;8.30;;
23472;SDS011;11909;52.516;13.564;2023-10-13T08:16:16;12.07;;;8.55;;
23472;SDS011;11909;52.516;13.564;2023-10-13T08:21:16;13.50;;;9.48;;
23472;SDS011;11909;52.516;13.564;2023-10-13T08:23:49;14.73;;;8.57;;
23472;SDS011;11909;52.516;13.564;2023-10-13T08:26:33;13.00;;;8.90;;
23472;SDS011;11909;52.516;13.564;2023-10-13T08:29:21;12.40;;;8.23;;
23472;SDS011;11909;52.516;13.564;2023-10-13T08:32:06;12.02;;;7.75;;
23472;SDS011;11909;52.516;13.564;2023-10-13T08:34:59;17.05;;;8.63;;
23472;SDS011;11909;52.516;13.564;2023-10-13T08:37:36;14.82;;;9.32;;
23472;SDS011;11909;52.516;13.564;2023-10-13T08:40:23;16.48;;;9.50;;
23472;SDS011;11909;52.516;13.564;2023-10-13T08:43:04;9.85;;;7.60;;
23472;SDS011;11909;52.516;13.564;2023-10-13T08:45:39;13.30;;;7.93;;
23472;SDS011;11909;52.516;13.564;2023-10-13T08:48:19;11.93;;;7.80;;
23472;SDS011;11909;52.516;13.564;2023-10-13T08:50:54;15.25;;;8.02;;
23472;SDS011;11909;52.516;13.564;2023-10-13T08:53:22;16.23;;;10.55;;
23472;SDS011;11909;52.516;13.564;2023-10-13T08:55:54;12.27;;;8.30;;
23472;SDS011;11909;52.516;13.564;2023-10-13T08:58:35;16.05;;;8.60;;
23472;SDS011;11909;52.516;13.564;2023-10-13T09:01:22;11.57;;;7.10;;
23472;SDS011;11909;52.516;13.564;2023-10-13T09:04:05;13.30;;;8.13;;
23472;SDS011;11909;52.516;13.564;2023-10-13T09:06:50;13.35;;;6.88;;
23472;SDS011;11909;52.516;13.564;2023-10-13T09:09:43;9.02;;;6.88;;
23472;SDS011;11909;52.516;13.564;2023-10-13T09:12:26;27.70;;;15.50;;
23472;SDS011;11909;52.516;13.564;2023-10-13T09:15:05;13.20;;;7.20;;
23472;SDS011;11909;52.516;13.564;2023-10-13T09:17:45;10.18;;;6.45;;
23472;SDS011;11909;52.516;13.564;2023-10-13T09:20:27;14.73;;;8.95;;
23472;SDS011;11909;52.516;13.564;2023-10-13T09:23:10;13.13;;;7.53;;
23472;SDS011;11909;52.516;13.564;2023-10-13T09:25:50;7.85;;;6.35;;
23472;SDS011;11909;52.516;13.564;2023-10-13T09:28:21;12.48;;;6.97;;
23472;SDS011;11909;52.516;13.564;2023-10-13T09:30:52;10.93;;;7.03;;
23472;SDS011;11909;52.516;13.564;2023-10-13T09:33:24;8.80;;;6.78;;
23472;SDS011;11909;52.516;13.564;2023-10-13T09:35:59;10.93;;;6.47;;
23472;SDS011;11909;52.516;13.564;2023-10-13T09:38:28;13.43;;;6.75;;
23472;SDS011;11909;52.516;13.564;2023-10-13T09:40:57;11.38;;;6.75;;
23472;SDS011;11909;52.516;13.564;2023-10-13T09:43:28;11.60;;;6.93;;
23472;SDS011;11909;52.516;13.564;2023-10-13T09:45:58;9.88;;;7.07;;
23472;SDS011;11909;52.516;13.564;2023-10-13T09:48:32;10.75;;;6.53;;
23472;SDS011;11909;52.516;13.564;2023-10-13T09:51:01;10.52;;;7.30;;
23472;SDS011;11909;52.516;13.564;2023-10-13T09:53:32;10.30;;;6.68;;
23472;SDS011;11909;52.516;13.564;2023-10-13T09:58:42;14.68;;;8.57;;
23472;SDS011;11909;52.516;13.564;2023-10-13T10:01:19;8.07;;;6.70;;
23472;SDS011;11909;52.516;13.564;2023-10-13T10:06:35;18.77;;;12.02;;
23472;SDS011;11909;52.516;13.564;2023-10-13T10:09:08;15.68;;;7.60;;
23472;SDS011;11909;52.516;13.564;2023-10-13T10:11:48;12.73;;;9.07;;
23472;SDS011;11909;52.516;13.564;2023-10-13T10:14:36;11.57;;;7.28;;
23472;SDS011;11909;52.516;13.564;2023-10-13T10:17:12;8.60;;;6.35;;
23472;SDS011;11909;52.516;13.564;2023-10-13T10:19:48;11.95;;;7.43;;
23472;SDS011;11909;52.516;13.564;2023-10-13T10:22:27;12.50;;;7.40;;
23472;SDS011;11909;52.516;13.564;2023-10-13T10:25:01;12.32;;;7.72;;
23472;SDS011;11909;52.516;13.564;2023-10-13T10:27:30;11.23;;;7.20;;
23472;SDS011;11909;52.516;13.564;2023-10-13T10:29:59;14.50;;;8.93;;
23472;SDS011;11909;52.516;13.564;2023-10-13T10:32:36;19.75;;;11.07;;
23472;SDS011;11909;52.516;13.564;2023-10-13T10:35:08;15.55;;;6.45;;
23472;SDS011;11909;52.516;13.564;2023-10-13T10:37:41;9.95;;;7.15;;
23472;SDS011;11909;52.516;13.564;2023-10-13T10:40:16;11.10;;;6.85;;
23472;SDS011;11909;52.516;13.564;2023-10-13T10:43:13;12.65;;;7.00;;
23472;SDS011;11909;52.516;13.564;2023-10-13T10:45:58;11.80;;;6.95;;
23472;SDS011;11909;52.516;13.564;2023-10-13T10:48:27;8.55;;;6.32;;
23472;SDS011;11909;52.516;13.564;2023-10-13T10:51:00;13.13;;;6.35;;
23472;SDS011;11909;52.516;13.564;2023-10-13T10:53:41;11.00;;;6.57;;
23472;SDS011;11909;52.516;13.564;2023-10-13T10:56:14;9.43;;;6.57;;
23472;SDS011;11909;52.516;13.564;2023-10-13T10:58:53;12.43;;;9.48;;
23472;SDS011;11909;52.516;13.564;2023-10-13T11:01:22;14.27;;;10.32;;
23472;SDS011;11909;52.516;13.564;2023-10-13T11:03:55;10.38;;;6.80;;
23472;SDS011;11909;52.516;13.564;2023-10-13T11:06:34;11.80;;;7.55;;
23472;SDS011;11909;52.516;13.564;2023-10-13T11:09:09;9.35;;;6.55;;
23472;SDS011;11909;52.516;13.564;2023-10-13T11:11:48;12.20;;;7.97;;
23472;SDS011;11909;52.516;13.564;2023-10-13T11:14:19;10.20;;;6.95;;
23472;SDS011;11909;52.516;13.564;2023-10-13T11:16:50;10.82;;;8.10;;
23472;SDS011;11909;52.516;13.564;2023-10-13T11:21:52;10.32;;;7.50;;
23472;SDS011;11909;52.516;13.564;2023-10-13T11:24:22;12.20;;;8.10;;
23472;SDS011;11909;52.516;13.564;2023-10-13T11:26:51;11.10;;;7.43;;
23472;SDS011;11909;52.516;13.564;2023-10-13T11:29:30;12.18;;;8.00;;
23472;SDS011;11909;52.516;13.564;2023-10-13T11:32:00;12.95;;;7.75;;
23472;SDS011;11909;52.516;13.564;2023-10-13T11:34:29;14.20;;;8.65;;
23472;SDS011;11909;52.516;13.564;2023-10-13T11:37:06;14.98;;;8.95;;
23472;SDS011;11909;52.516;13.564;2023-10-13T11:39:54;14.05;;;10.13;;
23472;SDS011;11909;52.516;13.564;2023-10-13T11:42:24;15.43;;;7.68;;
23472;SDS011;11909;52.516;13.564;2023-10-13T11:47:40;10.82;;;7.13;;
23472;SDS011;11909;52.516;13.564;2023-10-13T11:50:16;16.02;;;9.32;;
23472;SDS011;11909;52.516;13.564;2023-10-13T11:52:58;17.73;;;8.90;;
23472;SDS011;11909;52.516;13.564;2023-10-13T11:55:27;13.95;;;8.70;;
23472;SDS011;11909;52.516;13.564;2023-10-13T11:57:56;12.00;;;7.53;;
23472;SDS011;11909;52.516;13.564;2023-10-13T12:00:26;12.75;;;7.70;;
23472;SDS011;11909;52.516;13.564;2023-10-13T12:03:14;14.45;;;7.60;;
23472;SDS011;11909;52.516;13.564;2023-10-13T12:06:00;13.88;;;7.70;;
23472;SDS011;11909;52.516;13.564;2023-10-13T12:08:45;12.10;;;7.78;;
23472;SDS011;11909;52.516;13.564;2023-10-13T12:11:19;13.48;;;7.65;;
23472;SDS011;11909;52.516;13.564;2023-10-13T12:14:00;12.68;;;7.18;;
23472;SDS011;11909;52.516;13.564;2023-10-13T12:16:38;12.53;;;7.63;;
23472;SDS011;11909;52.516;13.564;2023-10-13T12:19:06;17.40;;;7.57;;
23472;SDS011;11909;52.516;13.564;2023-10-13T12:21:38;10.00;;;6.63;;
23472;SDS011;11909;52.516;13.564;2023-10-13T12:24:07;13.77;;;8.27;;
23472;SDS011;11909;52.516;13.564;2023-10-13T12:26:48;12.52;;;7.20;;
23472;SDS011;11909;52.516;13.564;2023-10-13T12:29:24;11.95;;;7.45;;
23472;SDS011;11909;52.516;13.564;2023-10-13T12:31:55;15.45;;;7.30;;
23472;SDS011;11909;52.516;13.564;2023-10-13T12:34:34;11.15;;;7.25;;
23472;SDS011;11909;52.516;13.564;2023-10-13T12:37:27;19.20;;;7.55;;
23472;SDS011;11909;52.516;13.564;2023-10-13T12:40:17;15.90;;;7.85;;
23472;SDS011;11909;52.516;13.564;2023-10-13T12:43:04;15.73;;;7.38;;
23472;SDS011;11909;52.516;13.564;2023-10-13T12:45:51;11.15;;;7.10;;
23472;SDS011;11909;52.516;13.564;2023-10-13T12:48:39;12.88;;;6.75;;
23472;SDS011;11909;52.516;13.564;2023-10-13T12:51:24;13.70;;;7.20;;
23472;SDS011;11909;52.516;13.564;2023-10-13T12:54:06;15.13;;;7.00;;
23472;SDS011;11909;52.516;13.564;2023-10-13T12:56:42;9.88;;;6.25;;
23472;SDS011;11909;52.516;13.564;2023-10-13T12:59:10;12.07;;;6.32;;
23472;SDS011;11909;52.516;13.564;2023-10-13T13:01:42;15.63;;;6.72;;
23472;SDS011;11909;52.516;13.564;2023-10-13T13:04:10;14.93;;;6.38;;
23472;SDS011;11909;52.516;13.564;2023-10-13T13:06:45;13.30;;;6.85;;
23472;SDS011;11909;52.516;13.564;2023-10-13T13:09:14;13.93;;;6.43;;
23472;SDS011;11909;52.516;13.564;2023-10-13T13:11:42;12.25;;;6.50;;
23472;SDS011;11909;52.516;13.564;2023-10-13T13:14:09;14.80;;;6.70;;
23472;SDS011;11909;52.516;13.564;2023-10-13T13:16:37;12.40;;;6.32;;
23472;SDS011;11909;52.516;13.564;2023-10-13T13:19:07;17.00;;;6.18;;
23472;SDS011;11909;52.516;13.564;2023-10-13T13:21:40;15.98;;;6.22;;
23472;SDS011;11909;52.516;13.564;2023-10-13T13:24:08;20.17;;;6.97;;
23472;SDS011;11909;52.516;13.564;2023-10-13T13:26:40;14.63;;;6.30;;
23472;SDS011;11909;52.516;13.564;2023-10-13T13:29:08;19.45;;;6.28;;
23472;SDS011;11909;52.516;13.564;2023-10-13T13:31:37;12.10;;;5.93;;
23472;SDS011;11909;52.516;13.564;2023-10-13T13:34:11;13.65;;;5.80;;
23472;SDS011;11909;52.516;13.564;2023-10-13T13:36:39;12.07;;;5.93;;
23472;SDS011;11909;52.516;13.564;2023-10-13T13:39:10;11.73;;;6.95;;
23472;SDS011;11909;52.516;13.564;2023-10-13T13:41:38;16.02;;;6.47;;
23472;SDS011;11909;52.516;13.564;2023-10-13T13:44:06;12.70;;;5.95;;
23472;SDS011;11909;52.516;13.564;2023-10-13T13:46:40;13.00;;;5.75;;
23472;SDS011;11909;52.516;13.564;2023-10-13T13:49:11;11.55;;;6.00;;
23472;SDS011;11909;52.516;13.564;2023-10-13T13:51:45;11.73;;;5.68;;
23472;SDS011;11909;52.516;13.564;2023-10-13T13:54:18;17.33;;;8.10;;
23472;SDS011;11909;52.516;13.564;2023-10-13T13:56:47;16.70;;;6.53;;
23472;SDS011;11909;52.516;13.564;2023-10-13T13:59:16;14.38;;;5.78;;
23472;SDS011;11909;52.516;13.564;2023-10-13T14:01:46;18.40;;;6.20;;
23472;SDS011;11909;52.516;13.564;2023-10-13T14:04:15;14.43;;;6.10;;
23472;SDS011;11909;52.516;13.564;2023-10-13T14:06:45;17.52;;;5.65;;
23472;SDS011;11909;52.516;13.564;2023-10-13T14:09:13;13.45;;;6.10;;
23472;SDS011;11909;52.516;13.564;2023-10-13T14:11:59;16.27;;;5.75;;
23472;SDS011;11909;52.516;13.564;2023-10-13T14:14:55;15.18;;;5.70;;
23472;SDS011;11909;52.516;13.564;2023-10-13T14:17:24;14.82;;;5.65;;
23472;SDS011;11909;52.516;13.564;2023-10-13T14:19:57;15.00;;;5.47;;
23472;SDS011;11909;52.516;13.564;2023-10-13T14:24:53;15.38;;;5.72;;
23472;SDS011;11909;52.516;13.564;2023-10-13T14:27:22;15.38;;;5.53;;
23472;SDS011;11909;52.516;13.564;2023-10-13T14:32:20;16.95;;;5.55;;
23472;SDS011;11909;52.516;13.564;2023-10-13T14:34:51;14.98;;;5.45;;
23472;SDS011;11909;52.516;13.564;2023-10-13T14:37:24;11.63;;;4.90;;
23472;SDS011;11909;52.516;13.564;2023-10-13T14:39:57;12.85;;;5.57;;
23472;SDS011;11909;52.516;13.564;2023-10-13T14:42:27;18.27;;;5.25;;
23472;SDS011;11909;52.516;13.564;2023-10-13T14:45:02;21.83;;;6.70;;
23472;SDS011;11909;52.516;13.564;2023-10-13T14:47:38;16.42;;;5.65;;
23472;SDS011;11909;52.516;13.564;2023-10-13T14:50:07;16.67;;;5.22;;
23472;SDS011;11909;52.516;13.564;2023-10-13T14:52:41;19.20;;;5.50;;
23472;SDS011;11909;52.516;13.564;2023-10-13T14:55:10;13.40;;;5.47;;
23472;SDS011;11909;52.516;13.564;2023-10-13T14:57:45;11.80;;;5.10;;
23472;SDS011;11909;52.516;13.564;2023-10-13T15:00:17;15.25;;;5.28;;
23472;SDS011;11909;52.516;13.564;2023-10-13T15:02:52;13.15;;;5.00;;
23472;SDS011;11909;52.516;13.564;2023-10-13T15:05:21;15.88;;;5.07;;
23472;SDS011;11909;52.516;13.564;2023-10-13T15:07:50;17.70;;;5.93;;
23472;SDS011;11909;52.516;13.564;2023-10-13T15:10:18;12.52;;;5.70;;
23472;SDS011;11909;52.516;13.564;2023-10-13T15:12:46;14.48;;;5.80;;
23472;SDS011;11909;52.516;13.564;2023-10-13T15:15:15;11.50;;;5.40;;
23472;SDS011;11909;52.516;13.564;2023-10-13T15:17:45;14.23;;;4.90;;
23472;SDS011;11909;52.516;13.564;2023-10-13T15:20:14;14.85;;;5.80;;
23472;SDS011;11909;52.516;13.564;2023-10-13T15:22:43;11.48;;;5.80;;
23472;SDS011;11909;52.516;13.564;2023-10-13T15:25:12;13.38;;;5.32;;
23472;SDS011;11909;52.516;13.564;2023-10-13T15:27:57;13.35;;;5.80;;
23472;SDS011;11909;52.516;13.564;2023-10-13T15:30:29;16.67;;;5.85;;
23472;SDS011;11909;52.516;13.564;2023-10-13T15:33:11;13.93;;;5.97;;
23472;SDS011;11909;52.516;13.564;2023-10-13T15:35:39;13.75;;;5.57;;
23472;SDS011;11909;52.516;13.564;2023-10-13T15:38:09;13.48;;;6.35;;